sensor_id;sensor_type;location;lat;lon;timestamp;P1;durP1;ratioP1;P2;durP2;ratioP2
82473;SDS011;72350;53.232;6.556;2024-03-22T00:01:59;42.38;;;28.15;;
82473;SDS011;72350;53.232;6.556;2024-03-22T00:04:26;40.92;;;27.70;;
82473;SDS011;72350;53.232;6.556;2024-03-22T00:06:53;38.22;;;25.73;;
82473;SDS011;72350;53.232;6.556;2024-03-22T00:09:19;40.55;;;27.58;;
82473;SDS011;72350;53.232;6.556;2024-03-22T00:11:46;30.88;;;22.48;;
82473;SDS011;72350;53.232;6.556;2024-03-22T00:14:12;41.30;;;28.10;;
82473;SDS011;72350;53.232;6.556;2024-03-22T00:16:38;37.13;;;25.23;;
82473;SDS011;72350;53.232;6.556;2024-03-22T00:19:04;54.22;;;33.97;;
82473;SDS011;72350;53.232;6.556;2024-03-22T00:21:33;36.60;;;25.60;;
82473;SDS011;72350;53.232;6.556;2024-03-22T00:23:59;28.30;;;20.95;;
82473;SDS011;72350;53.232;6.556;2024-03-22T00:26:26;49.15;;;31.15;;
82473;SDS011;72350;53.232;6.556;2024-03-22T00:28:52;36.03;;;24.83;;
82473;SDS011;72350;53.232;6.556;2024-03-22T00:31:19;38.50;;;27.55;;
82473;SDS011;72350;53.232;6.556;2024-03-22T00:33:45;39.38;;;26.52;;
82473;SDS011;72350;53.232;6.556;2024-03-22T00:36:12;36.00;;;23.67;;
82473;SDS011;72350;53.232;6.556;2024-03-22T00:38:39;46.38;;;29.42;;
82473;SDS011;72350;53.232;6.556;2024-03-22T00:41:06;39.10;;;27.48;;
82473;SDS011;72350;53.232;6.556;2024-03-22T00:43:32;35.47;;;25.40;;
82473;SDS011;72350;53.232;6.556;2024-03-22T00:45:59;33.25;;;23.55;;
82473;SDS011;72350;53.232;6.556;2024-03-22T00:48:25;36.85;;;26.20;;
82473;SDS011;72350;53.232;6.556;2024-03-22T00:50:52;37.58;;;26.38;;
82473;SDS011;72350;53.232;6.556;2024-03-22T00:53:18;37.45;;;26.08;;
82473;SDS011;72350;53.232;6.556;2024-03-22T00:55:47;38.65;;;26.00;;
82473;SDS011;72350;53.232;6.556;2024-03-22T00:58:17;37.03;;;25.27;;
82473;SDS011;72350;53.232;6.556;2024-03-22T01:00:44;38.60;;;25.45;;
82473;SDS011;72350;53.232;6.556;2024-03-22T01:03:10;34.50;;;24.15;;
82473;SDS011;72350;53.232;6.556;2024-03-22T01:05:37;37.08;;;25.08;;
82473;SDS011;72350;53.232;6.556;2024-03-22T01:08:03;36.13;;;26.15;;
82473;SDS011;72350;53.232;6.556;2024-03-22T01:10:32;36.88;;;25.50;;
82473;SDS011;72350;53.232;6.556;2024-03-22T01:12:59;35.95;;;25.65;;
82473;SDS011;72350;53.232;6.556;2024-03-22T01:15:27;38.58;;;26.38;;
82473;SDS011;72350;53.232;6.556;2024-03-22T01:17:53;40.30;;;26.38;;
82473;SDS011;72350;53.232;6.556;2024-03-22T01:20:20;37.90;;;27.05;;
82473;SDS011;72350;53.232;6.556;2024-03-22T01:22:46;40.63;;;26.92;;
82473;SDS011;72350;53.232;6.556;2024-03-22T01:25:13;38.88;;;27.45;;
82473;SDS011;72350;53.232;6.556;2024-03-22T01:27:39;38.65;;;26.08;;
82473;SDS011;72350;53.232;6.556;2024-03-22T01:30:08;40.00;;;27.30;;
82473;SDS011;72350;53.232;6.556;2024-03-22T01:32:34;43.00;;;28.10;;
82473;SDS011;72350;53.232;6.556;2024-03-22T01:35:01;40.75;;;26.63;;
82473;SDS011;72350;53.232;6.556;2024-03-22T01:37:27;41.95;;;26.92;;
82473;SDS011;72350;53.232;6.556;2024-03-22T01:39:54;45.08;;;28.92;;
82473;SDS011;72350;53.232;6.556;2024-03-22T01:42:20;44.60;;;28.80;;
82473;SDS011;72350;53.232;6.556;2024-03-22T01:44:48;40.65;;;27.90;;
82473;SDS011;72350;53.232;6.556;2024-03-22T01:47:16;39.40;;;28.27;;
82473;SDS011;72350;53.232;6.556;2024-03-22T01:49:43;41.17;;;27.80;;
82473;SDS011;72350;53.232;6.556;2024-03-22T01:52:09;46.03;;;29.08;;
82473;SDS011;72350;53.232;6.556;2024-03-22T01:54:36;44.72;;;29.65;;
82473;SDS011;72350;53.232;6.556;2024-03-22T01:57:02;47.20;;;29.63;;
82473;SDS011;72350;53.232;6.556;2024-03-22T01:59:29;45.78;;;30.70;;
82473;SDS011;72350;53.232;6.556;2024-03-22T02:01:56;45.47;;;30.38;;
82473;SDS011;72350;53.232;6.556;2024-03-22T02:04:24;46.25;;;30.00;;
82473;SDS011;72350;53.232;6.556;2024-03-22T02:06:50;49.47;;;30.42;;
82473;SDS011;72350;53.232;6.556;2024-03-22T02:09:17;48.03;;;30.80;;
82473;SDS011;72350;53.232;6.556;2024-03-22T02:11:43;46.67;;;32.33;;
82473;SDS011;72350;53.232;6.556;2024-03-22T02:14:10;46.53;;;31.35;;
82473;SDS011;72350;53.232;6.556;2024-03-22T02:16:36;51.15;;;31.85;;
82473;SDS011;72350;53.232;6.556;2024-03-22T02:19:03;48.70;;;31.73;;
82473;SDS011;72350;53.232;6.556;2024-03-22T02:21:30;49.67;;;31.40;;
82473;SDS011;72350;53.232;6.556;2024-03-22T02:24:00;48.72;;;31.17;;
82473;SDS011;72350;53.232;6.556;2024-03-22T02:26:26;46.10;;;31.77;;
82473;SDS011;72350;53.232;6.556;2024-03-22T02:28:53;52.53;;;33.03;;
82473;SDS011;72350;53.232;6.556;2024-03-22T02:31:19;49.75;;;32.25;;
82473;SDS011;72350;53.232;6.556;2024-03-22T02:33:46;49.50;;;31.67;;
82473;SDS011;72350;53.232;6.556;2024-03-22T02:36:12;49.85;;;31.33;;
82473;SDS011;72350;53.232;6.556;2024-03-22T02:38:39;50.83;;;32.28;;
82473;SDS011;72350;53.232;6.556;2024-03-22T02:41:06;52.22;;;33.60;;
82473;SDS011;72350;53.232;6.556;2024-03-22T02:43:33;54.38;;;33.03;;
82473;SDS011;72350;53.232;6.556;2024-03-22T02:45:59;54.95;;;34.88;;
82473;SDS011;72350;53.232;6.556;2024-03-22T02:48:26;50.60;;;33.55;;
82473;SDS011;72350;53.232;6.556;2024-03-22T02:50:55;51.90;;;32.20;;
82473;SDS011;72350;53.232;6.556;2024-03-22T02:53:22;55.45;;;32.95;;
82473;SDS011;72350;53.232;6.556;2024-03-22T02:55:48;50.78;;;31.65;;
82473;SDS011;72350;53.232;6.556;2024-03-22T02:58:17;51.45;;;31.80;;
82473;SDS011;72350;53.232;6.556;2024-03-22T03:00:44;56.47;;;33.92;;
82473;SDS011;72350;53.232;6.556;2024-03-22T03:03:11;59.95;;;34.58;;
82473;SDS011;72350;53.232;6.556;2024-03-22T03:05:37;54.10;;;32.83;;
82473;SDS011;72350;53.232;6.556;2024-03-22T03:08:04;57.70;;;33.97;;
82473;SDS011;72350;53.232;6.556;2024-03-22T03:10:29;56.60;;;33.90;;
82473;SDS011;72350;53.232;6.556;2024-03-22T03:12:56;61.10;;;36.13;;
82473;SDS011;72350;53.232;6.556;2024-03-22T03:15:24;59.38;;;33.33;;
82473;SDS011;72350;53.232;6.556;2024-03-22T03:17:51;62.47;;;35.83;;
82473;SDS011;72350;53.232;6.556;2024-03-22T03:20:17;63.67;;;34.13;;
82473;SDS011;72350;53.232;6.556;2024-03-22T03:22:44;57.08;;;34.95;;
82473;SDS011;72350;53.232;6.556;2024-03-22T03:25:10;59.17;;;34.60;;
82473;SDS011;72350;53.232;6.556;2024-03-22T03:27:37;58.88;;;32.95;;
82473;SDS011;72350;53.232;6.556;2024-03-22T03:30:03;60.90;;;35.33;;
82473;SDS011;72350;53.232;6.556;2024-03-22T03:32:32;61.28;;;34.40;;
82473;SDS011;72350;53.232;6.556;2024-03-22T03:34:58;59.58;;;34.25;;
82473;SDS011;72350;53.232;6.556;2024-03-22T03:37:25;59.22;;;34.33;;
82473;SDS011;72350;53.232;6.556;2024-03-22T03:39:51;62.15;;;34.80;;
82473;SDS011;72350;53.232;6.556;2024-03-22T03:42:18;63.83;;;34.53;;
82473;SDS011;72350;53.232;6.556;2024-03-22T03:44:43;58.65;;;33.92;;
82473;SDS011;72350;53.232;6.556;2024-03-22T03:47:10;63.25;;;34.97;;
82473;SDS011;72350;53.232;6.556;2024-03-22T03:49:38;59.33;;;33.25;;
82473;SDS011;72350;53.232;6.556;2024-03-22T03:52:04;63.15;;;35.13;;
82473;SDS011;72350;53.232;6.556;2024-03-22T03:54:31;64.50;;;34.45;;
82473;SDS011;72350;53.232;6.556;2024-03-22T03:56:57;61.03;;;34.15;;
82473;SDS011;72350;53.232;6.556;2024-03-22T03:59:23;61.88;;;35.20;;
82473;SDS011;72350;53.232;6.556;2024-03-22T04:01:50;61.15;;;34.38;;
82473;SDS011;72350;53.232;6.556;2024-03-22T04:04:16;59.75;;;33.47;;
82473;SDS011;72350;53.232;6.556;2024-03-22T04:06:44;61.78;;;33.50;;
82473;SDS011;72350;53.232;6.556;2024-03-22T04:09:10;64.22;;;33.78;;
82473;SDS011;72350;53.232;6.556;2024-03-22T04:11:37;54.97;;;32.10;;
82473;SDS011;72350;53.232;6.556;2024-03-22T04:14:03;56.97;;;33.38;;
82473;SDS011;72350;53.232;6.556;2024-03-22T04:16:31;61.50;;;34.15;;
82473;SDS011;72350;53.232;6.556;2024-03-22T04:18:57;67.25;;;34.22;;
82473;SDS011;72350;53.232;6.556;2024-03-22T04:21:24;60.22;;;34.35;;
82473;SDS011;72350;53.232;6.556;2024-03-22T04:23:51;58.50;;;32.72;;
82473;SDS011;72350;53.232;6.556;2024-03-22T04:26:18;56.75;;;31.45;;
82473;SDS011;72350;53.232;6.556;2024-03-22T04:28:45;58.80;;;33.00;;
82473;SDS011;72350;53.232;6.556;2024-03-22T04:31:12;58.70;;;32.45;;
82473;SDS011;72350;53.232;6.556;2024-03-22T04:33:37;60.60;;;31.50;;
82473;SDS011;72350;53.232;6.556;2024-03-22T04:36:05;59.42;;;32.53;;
82473;SDS011;72350;53.232;6.556;2024-03-22T04:38:31;58.55;;;32.85;;
82473;SDS011;72350;53.232;6.556;2024-03-22T04:41:00;56.42;;;31.58;;
82473;SDS011;72350;53.232;6.556;2024-03-22T04:43:27;55.60;;;31.58;;
82473;SDS011;72350;53.232;6.556;2024-03-22T04:45:54;57.90;;;34.08;;
82473;SDS011;72350;53.232;6.556;2024-03-22T04:48:21;58.10;;;32.50;;
82473;SDS011;72350;53.232;6.556;2024-03-22T04:50:48;59.97;;;32.60;;
82473;SDS011;72350;53.232;6.556;2024-03-22T04:53:16;60.50;;;32.78;;
82473;SDS011;72350;53.232;6.556;2024-03-22T04:55:42;65.82;;;33.45;;
82473;SDS011;72350;53.232;6.556;2024-03-22T04:58:13;63.03;;;32.80;;
82473;SDS011;72350;53.232;6.556;2024-03-22T05:00:39;57.75;;;32.17;;
82473;SDS011;72350;53.232;6.556;2024-03-22T05:03:06;62.45;;;32.00;;
82473;SDS011;72350;53.232;6.556;2024-03-22T05:05:33;54.22;;;31.25;;
82473;SDS011;72350;53.232;6.556;2024-03-22T05:08:01;57.63;;;31.20;;
82473;SDS011;72350;53.232;6.556;2024-03-22T05:10:27;57.95;;;32.40;;
82473;SDS011;72350;53.232;6.556;2024-03-22T05:12:55;58.53;;;30.90;;
82473;SDS011;72350;53.232;6.556;2024-03-22T05:15:22;53.10;;;30.13;;
82473;SDS011;72350;53.232;6.556;2024-03-22T05:17:50;55.05;;;30.10;;
82473;SDS011;72350;53.232;6.556;2024-03-22T05:20:17;49.88;;;28.55;;
82473;SDS011;72350;53.232;6.556;2024-03-22T05:22:44;51.30;;;28.98;;
82473;SDS011;72350;53.232;6.556;2024-03-22T05:25:10;55.25;;;29.13;;
82473;SDS011;72350;53.232;6.556;2024-03-22T05:27:38;55.00;;;29.67;;
82473;SDS011;72350;53.232;6.556;2024-03-22T05:30:05;49.42;;;28.33;;
82473;SDS011;72350;53.232;6.556;2024-03-22T05:32:34;52.88;;;29.05;;
82473;SDS011;72350;53.232;6.556;2024-03-22T05:35:01;56.05;;;28.88;;
82473;SDS011;72350;53.232;6.556;2024-03-22T05:37:27;53.92;;;27.95;;
82473;SDS011;72350;53.232;6.556;2024-03-22T05:39:54;52.60;;;30.00;;
82473;SDS011;72350;53.232;6.556;2024-03-22T05:42:20;47.17;;;27.15;;
82473;SDS011;72350;53.232;6.556;2024-03-22T05:44:47;46.15;;;25.58;;
82473;SDS011;72350;53.232;6.556;2024-03-22T05:47:13;53.17;;;26.98;;
82473;SDS011;72350;53.232;6.556;2024-03-22T05:49:41;47.45;;;27.15;;
82473;SDS011;72350;53.232;6.556;2024-03-22T05:52:07;49.33;;;28.33;;
82473;SDS011;72350;53.232;6.556;2024-03-22T05:54:34;54.50;;;27.70;;
82473;SDS011;72350;53.232;6.556;2024-03-22T05:57:01;44.00;;;26.45;;
82473;SDS011;72350;53.232;6.556;2024-03-22T05:59:30;46.92;;;28.73;;
82473;SDS011;72350;53.232;6.556;2024-03-22T06:01:56;48.65;;;25.92;;
82473;SDS011;72350;53.232;6.556;2024-03-22T06:04:23;49.75;;;27.80;;
82473;SDS011;72350;53.232;6.556;2024-03-22T06:06:51;48.60;;;25.58;;
82473;SDS011;72350;53.232;6.556;2024-03-22T06:09:17;39.63;;;23.70;;
82473;SDS011;72350;53.232;6.556;2024-03-22T06:11:49;45.08;;;25.17;;
82473;SDS011;72350;53.232;6.556;2024-03-22T06:14:17;41.38;;;22.83;;
82473;SDS011;72350;53.232;6.556;2024-03-22T06:16:43;40.47;;;23.08;;
82473;SDS011;72350;53.232;6.556;2024-03-22T06:19:10;32.83;;;20.92;;
82473;SDS011;72350;53.232;6.556;2024-03-22T06:21:36;38.60;;;22.52;;
82473;SDS011;72350;53.232;6.556;2024-03-22T06:24:04;34.90;;;20.75;;
82473;SDS011;72350;53.232;6.556;2024-03-22T06:26:30;27.23;;;17.80;;
82473;SDS011;72350;53.232;6.556;2024-03-22T06:28:57;32.22;;;19.20;;
82473;SDS011;72350;53.232;6.556;2024-03-22T06:31:23;33.33;;;17.90;;
82473;SDS011;72350;53.232;6.556;2024-03-22T06:33:50;29.40;;;16.13;;
82473;SDS011;72350;53.232;6.556;2024-03-22T06:36:16;29.15;;;18.35;;
82473;SDS011;72350;53.232;6.556;2024-03-22T06:38:43;27.58;;;16.90;;
82473;SDS011;72350;53.232;6.556;2024-03-22T06:41:11;28.20;;;17.92;;
82473;SDS011;72350;53.232;6.556;2024-03-22T06:43:38;28.85;;;16.45;;
82473;SDS011;72350;53.232;6.556;2024-03-22T06:46:04;24.02;;;14.45;;
82473;SDS011;72350;53.232;6.556;2024-03-22T06:48:30;26.40;;;16.33;;
82473;SDS011;72350;53.232;6.556;2024-03-22T06:50:56;27.95;;;15.05;;
82473;SDS011;72350;53.232;6.556;2024-03-22T06:53:23;28.15;;;13.73;;
82473;SDS011;72350;53.232;6.556;2024-03-22T06:55:49;29.45;;;14.18;;
82473;SDS011;72350;53.232;6.556;2024-03-22T06:58:17;27.30;;;13.68;;
82473;SDS011;72350;53.232;6.556;2024-03-22T07:00:43;27.75;;;13.18;;
82473;SDS011;72350;53.232;6.556;2024-03-22T07:03:10;28.10;;;14.65;;
82473;SDS011;72350;53.232;6.556;2024-03-22T07:05:36;28.10;;;13.75;;
82473;SDS011;72350;53.232;6.556;2024-03-22T07:08:03;34.75;;;20.13;;
82473;SDS011;72350;53.232;6.556;2024-03-22T07:10:29;48.50;;;28.05;;
82473;SDS011;72350;53.232;6.556;2024-03-22T07:12:57;38.28;;;20.70;;
82473;SDS011;72350;53.232;6.556;2024-03-22T07:15:24;61.30;;;34.17;;
82473;SDS011;72350;53.232;6.556;2024-03-22T07:17:51;44.30;;;22.85;;
82473;SDS011;72350;53.232;6.556;2024-03-22T07:20:17;84.68;;;46.15;;
82473;SDS011;72350;53.232;6.556;2024-03-22T07:22:44;48.17;;;26.23;;
82473;SDS011;72350;53.232;6.556;2024-03-22T07:25:11;60.72;;;31.15;;
82473;SDS011;72350;53.232;6.556;2024-03-22T07:27:38;55.67;;;31.00;;
82473;SDS011;72350;53.232;6.556;2024-03-22T07:30:04;61.28;;;36.70;;
82473;SDS011;72350;53.232;6.556;2024-03-22T07:32:33;50.25;;;27.38;;
82473;SDS011;72350;53.232;6.556;2024-03-22T07:34:59;41.40;;;20.08;;
82473;SDS011;72350;53.232;6.556;2024-03-22T07:37:26;28.70;;;15.88;;
82473;SDS011;72350;53.232;6.556;2024-03-22T07:39:52;43.95;;;22.58;;
82473;SDS011;72350;53.232;6.556;2024-03-22T07:42:19;25.75;;;13.40;;
82473;SDS011;72350;53.232;6.556;2024-03-22T07:44:46;35.80;;;19.98;;
82473;SDS011;72350;53.232;6.556;2024-03-22T07:47:13;70.75;;;38.00;;
82473;SDS011;72350;53.232;6.556;2024-03-22T07:49:41;49.72;;;27.20;;
82473;SDS011;72350;53.232;6.556;2024-03-22T07:52:08;47.95;;;26.00;;
82473;SDS011;72350;53.232;6.556;2024-03-22T07:54:34;46.92;;;25.83;;
82473;SDS011;72350;53.232;6.556;2024-03-22T07:57:01;84.75;;;45.70;;
82473;SDS011;72350;53.232;6.556;2024-03-22T07:59:28;76.68;;;44.60;;
82473;SDS011;72350;53.232;6.556;2024-03-22T08:01:55;116.80;;;62.40;;
82473;SDS011;72350;53.232;6.556;2024-03-22T08:04:22;40.65;;;23.55;;
82473;SDS011;72350;53.232;6.556;2024-03-22T08:06:51;97.55;;;55.50;;
82473;SDS011;72350;53.232;6.556;2024-03-22T08:09:17;63.35;;;37.97;;
82473;SDS011;72350;53.232;6.556;2024-03-22T08:11:45;40.67;;;23.23;;
82473;SDS011;72350;53.232;6.556;2024-03-22T08:14:13;151.57;;;91.68;;
82473;SDS011;72350;53.232;6.556;2024-03-22T08:16:39;482.85;;;307.48;;
82473;SDS011;72350;53.232;6.556;2024-03-22T08:19:06;329.23;;;198.32;;
82473;SDS011;72350;53.232;6.556;2024-03-22T08:21:32;321.00;;;197.50;;
82473;SDS011;72350;53.232;6.556;2024-03-22T08:24:00;356.52;;;217.32;;
82473;SDS011;72350;53.232;6.556;2024-03-22T08:26:26;231.63;;;135.02;;
82473;SDS011;72350;53.232;6.556;2024-03-22T08:28:53;157.85;;;92.15;;
82473;SDS011;72350;53.232;6.556;2024-03-22T08:31:19;121.88;;;69.03;;
82473;SDS011;72350;53.232;6.556;2024-03-22T08:33:51;90.65;;;54.72;;
82473;SDS011;72350;53.232;6.556;2024-03-22T08:36:17;84.88;;;47.72;;
82473;SDS011;72350;53.232;6.556;2024-03-22T08:38:43;60.38;;;35.22;;
82473;SDS011;72350;53.232;6.556;2024-03-22T08:41:11;54.88;;;33.15;;
82473;SDS011;72350;53.232;6.556;2024-03-22T08:43:38;46.60;;;27.98;;
82473;SDS011;72350;53.232;6.556;2024-03-22T08:46:04;36.85;;;23.77;;
82473;SDS011;72350;53.232;6.556;2024-03-22T08:48:30;30.92;;;19.70;;
82473;SDS011;72350;53.232;6.556;2024-03-22T08:50:57;26.23;;;17.02;;
82473;SDS011;72350;53.232;6.556;2024-03-22T08:53:23;21.17;;;14.45;;
82473;SDS011;72350;53.232;6.556;2024-03-22T08:55:50;16.88;;;12.23;;
82473;SDS011;72350;53.232;6.556;2024-03-22T08:58:17;17.45;;;11.70;;
82473;SDS011;72350;53.232;6.556;2024-03-22T09:00:44;14.98;;;10.52;;
82473;SDS011;72350;53.232;6.556;2024-03-22T09:03:10;14.27;;;10.35;;
82473;SDS011;72350;53.232;6.556;2024-03-22T09:05:37;13.13;;;9.73;;
82473;SDS011;72350;53.232;6.556;2024-03-22T09:08:03;12.35;;;8.63;;
82473;SDS011;72350;53.232;6.556;2024-03-22T09:10:31;9.55;;;7.55;;
82473;SDS011;72350;53.232;6.556;2024-03-22T09:12:57;10.10;;;7.95;;
82473;SDS011;72350;53.232;6.556;2024-03-22T09:15:25;9.88;;;7.22;;
82473;SDS011;72350;53.232;6.556;2024-03-22T09:17:51;8.77;;;6.57;;
82473;SDS011;72350;53.232;6.556;2024-03-22T09:20:18;6.53;;;5.57;;
82473;SDS011;72350;53.232;6.556;2024-03-22T09:22:44;8.02;;;5.63;;
82473;SDS011;72350;53.232;6.556;2024-03-22T09:25:11;7.15;;;5.60;;
82473;SDS011;72350;53.232;6.556;2024-03-22T09:27:37;5.75;;;5.15;;
82473;SDS011;72350;53.232;6.556;2024-03-22T09:30:04;5.85;;;4.88;;
82473;SDS011;72350;53.232;6.556;2024-03-22T09:32:33;7.25;;;5.22;;
82473;SDS011;72350;53.232;6.556;2024-03-22T09:35:00;6.35;;;4.60;;
82473;SDS011;72350;53.232;6.556;2024-03-22T09:37:26;6.70;;;4.20;;
82473;SDS011;72350;53.232;6.556;2024-03-22T09:39:53;5.63;;;4.10;;
82473;SDS011;72350;53.232;6.556;2024-03-22T09:42:19;6.53;;;4.43;;
82473;SDS011;72350;53.232;6.556;2024-03-22T09:44:50;25.08;;;19.83;;
82473;SDS011;72350;53.232;6.556;2024-03-22T09:47:18;52.83;;;37.90;;
82473;SDS011;72350;53.232;6.556;2024-03-22T09:49:47;82.20;;;58.08;;
82473;SDS011;72350;53.232;6.556;2024-03-22T09:52:15;93.38;;;65.72;;
82473;SDS011;72350;53.232;6.556;2024-03-22T09:54:44;71.07;;;49.17;;
82473;SDS011;72350;53.232;6.556;2024-03-22T09:57:13;52.15;;;36.67;;
82473;SDS011;72350;53.232;6.556;2024-03-22T09:59:42;50.88;;;37.80;;
82473;SDS011;72350;53.232;6.556;2024-03-22T10:02:09;68.57;;;49.50;;
82473;SDS011;72350;53.232;6.556;2024-03-22T10:04:37;73.47;;;50.55;;
82473;SDS011;72350;53.232;6.556;2024-03-22T10:07:05;107.53;;;74.32;;
82473;SDS011;72350;53.232;6.556;2024-03-22T10:09:33;94.78;;;66.97;;
82473;SDS011;72350;53.232;6.556;2024-03-22T10:12:00;67.68;;;49.20;;
82473;SDS011;72350;53.232;6.556;2024-03-22T10:14:29;53.88;;;38.90;;
82473;SDS011;72350;53.232;6.556;2024-03-22T10:16:56;40.67;;;28.67;;
82473;SDS011;72350;53.232;6.556;2024-03-22T10:19:23;29.40;;;21.52;;
82473;SDS011;72350;53.232;6.556;2024-03-22T10:21:59;20.08;;;15.82;;
82473;SDS011;72350;53.232;6.556;2024-03-22T10:24:27;19.75;;;13.45;;
82473;SDS011;72350;53.232;6.556;2024-03-22T10:26:54;16.70;;;11.77;;
82473;SDS011;72350;53.232;6.556;2024-03-22T10:29:21;17.77;;;14.50;;
82473;SDS011;72350;53.232;6.556;2024-03-22T10:31:47;25.38;;;21.35;;
82473;SDS011;72350;53.232;6.556;2024-03-22T10:34:14;34.80;;;26.55;;
82473;SDS011;72350;53.232;6.556;2024-03-22T10:36:41;65.35;;;48.88;;
82473;SDS011;72350;53.232;6.556;2024-03-22T10:39:10;101.22;;;73.40;;
82473;SDS011;72350;53.232;6.556;2024-03-22T10:41:40;22.13;;;17.23;;
82473;SDS011;72350;53.232;6.556;2024-03-22T10:44:09;4.63;;;3.70;;
82473;SDS011;72350;53.232;6.556;2024-03-22T10:46:36;7.68;;;6.47;;
82473;SDS011;72350;53.232;6.556;2024-03-22T10:49:04;11.20;;;8.27;;
82473;SDS011;72350;53.232;6.556;2024-03-22T10:51:31;6.90;;;5.57;;
82473;SDS011;72350;53.232;6.556;2024-03-22T10:54:01;8.30;;;5.40;;
82473;SDS011;72350;53.232;6.556;2024-03-22T10:56:28;6.00;;;4.45;;
82473;SDS011;72350;53.232;6.556;2024-03-22T10:58:58;4.55;;;3.88;;
82473;SDS011;72350;53.232;6.556;2024-03-22T11:01:29;5.43;;;3.78;;
82473;SDS011;72350;53.232;6.556;2024-03-22T11:06:32;6.00;;;4.45;;
82473;SDS011;72350;53.232;6.556;2024-03-22T11:08:59;8.68;;;6.50;;
82473;SDS011;72350;53.232;6.556;2024-03-22T11:11:28;12.55;;;8.30;;
82473;SDS011;72350;53.232;6.556;2024-03-22T11:13:58;11.85;;;8.23;;
82473;SDS011;72350;53.232;6.556;2024-03-22T11:16:24;9.25;;;6.30;;
82473;SDS011;72350;53.232;6.556;2024-03-22T11:18:51;13.35;;;9.23;;
82473;SDS011;72350;53.232;6.556;2024-03-22T11:21:17;8.63;;;6.18;;
82473;SDS011;72350;53.232;6.556;2024-03-22T11:23:45;21.23;;;14.23;;
82473;SDS011;72350;53.232;6.556;2024-03-22T11:26:12;11.00;;;6.38;;
82473;SDS011;72350;53.232;6.556;2024-03-22T11:28:39;8.00;;;4.68;;
82473;SDS011;72350;53.232;6.556;2024-03-22T11:31:06;5.47;;;4.45;;
82473;SDS011;72350;53.232;6.556;2024-03-22T11:33:33;9.40;;;4.80;;
82473;SDS011;72350;53.232;6.556;2024-03-22T11:36:18;13.52;;;9.18;;
82473;SDS011;72350;53.232;6.556;2024-03-22T11:38:46;4.45;;;3.00;;
82473;SDS011;72350;53.232;6.556;2024-03-22T11:41:15;12.48;;;8.50;;
82473;SDS011;72350;53.232;6.556;2024-03-22T11:43:44;8.40;;;5.78;;
82473;SDS011;72350;53.232;6.556;2024-03-22T11:46:12;48.25;;;28.70;;
82473;SDS011;72350;53.232;6.556;2024-03-22T11:48:40;16.08;;;10.73;;
82473;SDS011;72350;53.232;6.556;2024-03-22T11:51:06;7.93;;;5.38;;
82473;SDS011;72350;53.232;6.556;2024-03-22T11:53:34;12.57;;;7.22;;
82473;SDS011;72350;53.232;6.556;2024-03-22T11:56:00;13.35;;;7.75;;
82473;SDS011;72350;53.232;6.556;2024-03-22T11:58:29;9.48;;;6.53;;
82473;SDS011;72350;53.232;6.556;2024-03-22T12:00:55;13.52;;;7.75;;
82473;SDS011;72350;53.232;6.556;2024-03-22T12:03:24;35.35;;;19.65;;
82473;SDS011;72350;53.232;6.556;2024-03-22T12:05:52;10.07;;;5.95;;
82473;SDS011;72350;53.232;6.556;2024-03-22T12:08:20;44.53;;;25.55;;
82473;SDS011;72350;53.232;6.556;2024-03-22T12:10:46;20.13;;;11.38;;
82473;SDS011;72350;53.232;6.556;2024-03-22T12:13:14;25.63;;;8.85;;
82473;SDS011;72350;53.232;6.556;2024-03-22T12:15:40;25.98;;;9.57;;
82473;SDS011;72350;53.232;6.556;2024-03-22T12:18:07;16.17;;;5.47;;
82473;SDS011;72350;53.232;6.556;2024-03-22T12:20:34;14.50;;;6.22;;
82473;SDS011;72350;53.232;6.556;2024-03-22T12:23:01;26.48;;;10.65;;
82473;SDS011;72350;53.232;6.556;2024-03-22T12:25:28;20.10;;;9.93;;
82473;SDS011;72350;53.232;6.556;2024-03-22T12:27:55;27.67;;;12.02;;
82473;SDS011;72350;53.232;6.556;2024-03-22T12:30:21;19.88;;;8.93;;
82473;SDS011;72350;53.232;6.556;2024-03-22T12:32:49;11.25;;;3.85;;
82473;SDS011;72350;53.232;6.556;2024-03-22T12:35:15;22.45;;;9.13;;
82473;SDS011;72350;53.232;6.556;2024-03-22T12:37:44;22.05;;;10.98;;
82473;SDS011;72350;53.232;6.556;2024-03-22T12:40:10;32.50;;;17.35;;
82473;SDS011;72350;53.232;6.556;2024-03-22T12:42:39;19.63;;;9.57;;
82473;SDS011;72350;53.232;6.556;2024-03-22T12:45:05;21.45;;;11.13;;
82473;SDS011;72350;53.232;6.556;2024-03-22T12:47:33;32.35;;;18.27;;
82473;SDS011;72350;53.232;6.556;2024-03-22T12:49:59;76.85;;;42.38;;
82473;SDS011;72350;53.232;6.556;2024-03-22T12:52:26;19.88;;;12.48;;
82473;SDS011;72350;53.232;6.556;2024-03-22T12:54:54;30.52;;;17.05;;
82473;SDS011;72350;53.232;6.556;2024-03-22T12:57:20;13.10;;;7.47;;
82473;SDS011;72350;53.232;6.556;2024-03-22T12:59:46;24.00;;;11.68;;
82473;SDS011;72350;53.232;6.556;2024-03-22T13:02:13;27.15;;;14.27;;
82473;SDS011;72350;53.232;6.556;2024-03-22T13:04:39;23.05;;;12.88;;
82473;SDS011;72350;53.232;6.556;2024-03-22T13:07:06;20.50;;;9.13;;
82473;SDS011;72350;53.232;6.556;2024-03-22T13:09:32;17.85;;;7.90;;
82473;SDS011;72350;53.232;6.556;2024-03-22T13:12:00;38.50;;;19.23;;
82473;SDS011;72350;53.232;6.556;2024-03-22T13:14:26;20.80;;;8.65;;
82473;SDS011;72350;53.232;6.556;2024-03-22T13:16:54;15.52;;;6.53;;
82473;SDS011;72350;53.232;6.556;2024-03-22T13:19:20;25.65;;;10.80;;
82473;SDS011;72350;53.232;6.556;2024-03-22T13:21:47;18.25;;;6.32;;
82473;SDS011;72350;53.232;6.556;2024-03-22T13:24:14;16.08;;;5.60;;
82473;SDS011;72350;53.232;6.556;2024-03-22T13:26:41;25.80;;;10.25;;
82473;SDS011;72350;53.232;6.556;2024-03-22T13:29:08;31.05;;;11.55;;
82473;SDS011;72350;53.232;6.556;2024-03-22T13:31:35;23.25;;;7.68;;
82473;SDS011;72350;53.232;6.556;2024-03-22T13:34:02;22.88;;;9.82;;
82473;SDS011;72350;53.232;6.556;2024-03-22T13:36:29;54.67;;;27.48;;
82473;SDS011;72350;53.232;6.556;2024-03-22T13:38:58;28.40;;;12.40;;
82473;SDS011;72350;53.232;6.556;2024-03-22T13:41:25;30.88;;;10.35;;
82473;SDS011;72350;53.232;6.556;2024-03-22T13:43:51;25.38;;;10.43;;
82473;SDS011;72350;53.232;6.556;2024-03-22T13:46:20;43.95;;;21.63;;
82473;SDS011;72350;53.232;6.556;2024-03-22T13:48:46;50.90;;;25.58;;
82473;SDS011;72350;53.232;6.556;2024-03-22T13:51:13;25.10;;;10.15;;
82473;SDS011;72350;53.232;6.556;2024-03-22T13:53:39;27.42;;;13.55;;
82473;SDS011;72350;53.232;6.556;2024-03-22T13:56:06;41.70;;;20.02;;
82473;SDS011;72350;53.232;6.556;2024-03-22T13:58:32;53.13;;;24.85;;
82473;SDS011;72350;53.232;6.556;2024-03-22T14:00:59;45.10;;;19.05;;
82473;SDS011;72350;53.232;6.556;2024-03-22T14:03:27;25.13;;;9.45;;
82473;SDS011;72350;53.232;6.556;2024-03-22T14:05:54;35.83;;;15.40;;
82473;SDS011;72350;53.232;6.556;2024-03-22T14:08:21;29.25;;;10.30;;
82473;SDS011;72350;53.232;6.556;2024-03-22T14:10:48;94.15;;;48.10;;
82473;SDS011;72350;53.232;6.556;2024-03-22T14:13:14;120.95;;;64.63;;
82473;SDS011;72350;53.232;6.556;2024-03-22T14:15:44;34.00;;;16.35;;
82473;SDS011;72350;53.232;6.556;2024-03-22T14:18:10;43.22;;;20.10;;
82473;SDS011;72350;53.232;6.556;2024-03-22T14:20:39;78.03;;;37.10;;
82473;SDS011;72350;53.232;6.556;2024-03-22T14:23:05;44.00;;;20.00;;
82473;SDS011;72350;53.232;6.556;2024-03-22T14:25:32;44.22;;;17.25;;